sensor_id;sensor_type;location;lat;lon;timestamp;pressure;altitude;pressure_sealevel;temperature;humidity
86525;BME280;77167;51.392;12.342;2024-03-23T00:52:57;99387.41;;;9.58;87.14
86525;BME280;77167;51.392;12.342;2024-03-23T00:55:22;99375.84;;;9.64;86.50
86525;BME280;77167;51.392;12.342;2024-03-23T00:57:47;99382.84;;;9.58;87.23
86525;BME280;77167;51.392;12.342;2024-03-23T01:00:13;99370.81;;;9.54;86.86
86525;BME280;77167;51.392;12.342;2024-03-23T01:02:39;99381.19;;;9.51;87.15
86525;BME280;77167;51.392;12.342;2024-03-23T01:05:04;99375.13;;;9.49;87.03
86525;BME280;77167;51.392;12.342;2024-03-23T01:07:30;99387.16;;;9.40;86.80
86525;BME280;77167;51.392;12.342;2024-03-23T01:09:55;99375.63;;;9.24;86.92
86525;BME280;77167;51.392;12.342;2024-03-23T01:12:20;99371.06;;;9.18;87.26
86525;BME280;77167;51.392;12.342;2024-03-23T01:14:46;99366.06;;;9.15;86.77
86525;BME280;77167;51.392;12.342;2024-03-23T01:17:12;99363.56;;;9.14;86.59
86525;BME280;77167;51.392;12.342;2024-03-23T01:19:37;99366.22;;;9.07;85.77
86525;BME280;77167;51.392;12.342;2024-03-23T01:22:04;99346.75;;;9.05;85.44
86525;BME280;77167;51.392;12.342;2024-03-23T01:24:30;99352.28;;;8.97;85.38
86525;BME280;77167;51.392;12.342;2024-03-23T01:26:55;99348.69;;;8.90;85.80
86525;BME280;77167;51.392;12.342;2024-03-23T01:29:21;99348.06;;;8.88;85.31
86525;BME280;77167;51.392;12.342;2024-03-23T01:31:46;99337.06;;;8.83;85.38
86525;BME280;77167;51.392;12.342;2024-03-23T01:34:11;99340.53;;;8.76;85.83
86525;BME280;77167;51.392;12.342;2024-03-23T01:36:37;99335.75;;;8.72;86.25
86525;BME280;77167;51.392;12.342;2024-03-23T01:39:03;99334.91;;;8.71;85.81
86525;BME280;77167;51.392;12.342;2024-03-23T01:41:29;99329.94;;;8.68;86.45
86525;BME280;77167;51.392;12.342;2024-03-23T01:43:55;99323.88;;;8.66;86.33
86525;BME280;77167;51.392;12.342;2024-03-23T01:46:20;99315.19;;;8.64;86.28
86525;BME280;77167;51.392;12.342;2024-03-23T01:48:46;99297.38;;;8.63;85.97
86525;BME280;77167;51.392;12.342;2024-03-23T01:51:12;99300.66;;;8.59;86.20
86525;BME280;77167;51.392;12.342;2024-03-23T01:53:38;99305.56;;;8.55;86.69
86525;BME280;77167;51.392;12.342;2024-03-23T01:56:03;99313.84;;;8.54;86.60
86525;BME280;77167;51.392;12.342;2024-03-23T01:58:29;99324.69;;;8.60;86.46
86525;BME280;77167;51.392;12.342;2024-03-23T02:00:54;99326.75;;;8.58;86.13
86525;BME280;77167;51.392;12.342;2024-03-23T02:03:26;99326.09;;;8.56;86.27
86525;BME280;77167;51.392;12.342;2024-03-23T02:05:56;99325.09;;;8.57;86.57
86525;BME280;77167;51.392;12.342;2024-03-23T02:08:23;99318.41;;;8.53;86.37
86525;BME280;77167;51.392;12.342;2024-03-23T02:10:49;99317.63;;;8.59;86.54
86525;BME280;77167;51.392;12.342;2024-03-23T02:13:17;99300.19;;;8.55;86.15
86525;BME280;77167;51.392;12.342;2024-03-23T02:15:42;99303.34;;;8.59;86.03
86525;BME280;77167;51.392;12.342;2024-03-23T02:18:08;99295.81;;;8.47;84.24
86525;BME280;77167;51.392;12.342;2024-03-23T02:20:34;99293.03;;;8.34;84.12
86525;BME280;77167;51.392;12.342;2024-03-23T02:23:00;99283.63;;;8.30;84.35
86525;BME280;77167;51.392;12.342;2024-03-23T02:25:25;99282.78;;;8.30;84.53
86525;BME280;77167;51.392;12.342;2024-03-23T02:27:51;99276.59;;;8.29;84.54
86525;BME280;77167;51.392;12.342;2024-03-23T02:30:18;99276.00;;;8.34;85.28
86525;BME280;77167;51.392;12.342;2024-03-23T02:32:43;99271.53;;;8.41;84.79
86525;BME280;77167;51.392;12.342;2024-03-23T02:35:09;99270.69;;;8.40;84.81
86525;BME280;77167;51.392;12.342;2024-03-23T02:37:34;99270.28;;;8.43;84.68
86525;BME280;77167;51.392;12.342;2024-03-23T02:39:59;99273.81;;;8.44;84.78
86525;BME280;77167;51.392;12.342;2024-03-23T02:42:25;99277.31;;;8.38;85.28
86525;BME280;77167;51.392;12.342;2024-03-23T02:44:51;99267.78;;;8.35;85.22
86525;BME280;77167;51.392;12.342;2024-03-23T02:47:16;99257.84;;;8.36;85.18
86525;BME280;77167;51.392;12.342;2024-03-23T02:49:41;99253.28;;;8.36;85.13
86525;BME280;77167;51.392;12.342;2024-03-23T02:52:07;99266.75;;;8.36;85.06
86525;BME280;77167;51.392;12.342;2024-03-23T02:54:32;99261.56;;;8.35;85.36
86525;BME280;77167;51.392;12.342;2024-03-23T02:56:57;99249.16;;;8.40;84.82
86525;BME280;77167;51.392;12.342;2024-03-23T02:59:23;99238.81;;;8.37;85.04
86525;BME280;77167;51.392;12.342;2024-03-23T03:01:48;99242.63;;;8.28;85.42
86525;BME280;77167;51.392;12.342;2024-03-23T03:04:13;99240.53;;;8.24;85.57
86525;BME280;77167;51.392;12.342;2024-03-23T03:06:39;99235.19;;;8.30;85.49
86525;BME280;77167;51.392;12.342;2024-03-23T03:09:06;99230.41;;;8.26;85.57
86525;BME280;77167;51.392;12.342;2024-03-23T03:11:31;99226.88;;;8.25;85.17
86525;BME280;77167;51.392;12.342;2024-03-23T03:13:57;99229.53;;;8.18;85.92
86525;BME280;77167;51.392;12.342;2024-03-23T03:16:25;99222.53;;;8.24;85.98
86525;BME280;77167;51.392;12.342;2024-03-23T03:18:50;99210.78;;;8.32;85.51
86525;BME280;77167;51.392;12.342;2024-03-23T03:21:17;99210.56;;;8.33;85.22
86525;BME280;77167;51.392;12.342;2024-03-23T03:23:44;99205.28;;;8.40;85.78
86525;BME280;77167;51.392;12.342;2024-03-23T03:26:09;99202.38;;;8.41;84.81
86525;BME280;77167;51.392;12.342;2024-03-23T03:28:35;99209.41;;;8.36;85.10
86525;BME280;77167;51.392;12.342;2024-03-23T03:31:00;99206.81;;;8.28;85.25
86525;BME280;77167;51.392;12.342;2024-03-23T03:33:29;99201.44;;;8.28;85.56
86525;BME280;77167;51.392;12.342;2024-03-23T03:35:55;99177.84;;;8.30;85.30
86525;BME280;77167;51.392;12.342;2024-03-23T03:38:20;99175.72;;;8.18;85.38
86525;BME280;77167;51.392;12.342;2024-03-23T03:40:46;99179.44;;;8.17;85.45
86525;BME280;77167;51.392;12.342;2024-03-23T03:43:12;99169.31;;;8.19;84.88
86525;BME280;77167;51.392;12.342;2024-03-23T03:45:37;99166.69;;;8.33;84.63
86525;BME280;77167;51.392;12.342;2024-03-23T03:48:03;99158.47;;;8.34;84.88
86525;BME280;77167;51.392;12.342;2024-03-23T03:50:28;99149.53;;;8.34;84.29
86525;BME280;77167;51.392;12.342;2024-03-23T03:52:54;99157.38;;;8.29;84.92
86525;BME280;77167;51.392;12.342;2024-03-23T03:55:19;99162.25;;;8.18;85.20
86525;BME280;77167;51.392;12.342;2024-03-23T03:57:44;99167.41;;;8.13;85.40
86525;BME280;77167;51.392;12.342;2024-03-23T04:00:10;99164.59;;;8.28;84.52
86525;BME280;77167;51.392;12.342;2024-03-23T04:02:38;99158.78;;;8.25;84.63
86525;BME280;77167;51.392;12.342;2024-03-23T04:05:04;99156.88;;;8.18;84.23
86525;BME280;77167;51.392;12.342;2024-03-23T04:07:29;99161.69;;;8.23;84.68
86525;BME280;77167;51.392;12.342;2024-03-23T04:09:55;99158.00;;;8.31;84.75
86525;BME280;77167;51.392;12.342;2024-03-23T04:12:20;99165.84;;;8.32;84.46
86525;BME280;77167;51.392;12.342;2024-03-23T04:14:46;99157.16;;;8.30;84.56
86525;BME280;77167;51.392;12.342;2024-03-23T04:17:11;99155.28;;;8.24;84.23
86525;BME280;77167;51.392;12.342;2024-03-23T04:19:37;99135.22;;;8.27;84.25
86525;BME280;77167;51.392;12.342;2024-03-23T04:22:02;99100.72;;;8.37;83.79
86525;BME280;77167;51.392;12.342;2024-03-23T04:24:29;99101.00;;;8.20;83.91
86525;BME280;77167;51.392;12.342;2024-03-23T04:26:54;99092.31;;;8.18;85.26
86525;BME280;77167;51.392;12.342;2024-03-23T04:29:20;99092.56;;;8.24;84.92
86525;BME280;77167;51.392;12.342;2024-03-23T04:31:45;99085.34;;;8.31;84.70
86525;BME280;77167;51.392;12.342;2024-03-23T04:34:11;99086.78;;;8.27;84.25
86525;BME280;77167;51.392;12.342;2024-03-23T04:36:36;99067.69;;;8.15;84.56
86525;BME280;77167;51.392;12.342;2024-03-23T04:39:02;99061.84;;;8.05;85.33
86525;BME280;77167;51.392;12.342;2024-03-23T04:41:27;99066.78;;;8.01;85.53
86525;BME280;77167;51.392;12.342;2024-03-23T04:43:53;99067.56;;;7.95;85.74
86525;BME280;77167;51.392;12.342;2024-03-23T04:46:18;99070.06;;;7.97;85.72
86525;BME280;77167;51.392;12.342;2024-03-23T04:48:43;99057.91;;;8.01;85.61
86525;BME280;77167;51.392;12.342;2024-03-23T04:51:10;99057.69;;;8.02;86.08
86525;BME280;77167;51.392;12.342;2024-03-23T04:53:38;99071.97;;;8.03;85.95
86525;BME280;77167;51.392;12.342;2024-03-23T04:56:03;99061.44;;;8.08;86.18
86525;BME280;77167;51.392;12.342;2024-03-23T04:58:29;99063.28;;;8.07;85.74
86525;BME280;77167;51.392;12.342;2024-03-23T05:00:55;99038.03;;;8.02;86.28
86525;BME280;77167;51.392;12.342;2024-03-23T05:03:21;99038.66;;;8.04;86.30
86525;BME280;77167;51.392;12.342;2024-03-23T05:05:47;99035.34;;;8.02;86.45
86525;BME280;77167;51.392;12.342;2024-03-23T05:08:13;99022.25;;;7.92;86.96
86525;BME280;77167;51.392;12.342;2024-03-23T05:10:39;98985.66;;;7.91;87.02
86525;BME280;77167;51.392;12.342;2024-03-23T05:13:04;98964.50;;;7.81;87.34
86525;BME280;77167;51.392;12.342;2024-03-23T05:15:29;98965.28;;;7.75;87.86
86525;BME280;77167;51.392;12.342;2024-03-23T05:17:55;98973.41;;;7.82;88.01
86525;BME280;77167;51.392;12.342;2024-03-23T05:20:21;98982.13;;;7.97;87.52
86525;BME280;77167;51.392;12.342;2024-03-23T05:22:46;98990.44;;;8.02;86.81
86525;BME280;77167;51.392;12.342;2024-03-23T05:25:12;98984.84;;;7.97;87.42
86525;BME280;77167;51.392;12.342;2024-03-23T05:27:37;98988.91;;;7.86;87.62
86525;BME280;77167;51.392;12.342;2024-03-23T05:30:03;98989.13;;;7.85;87.95
86525;BME280;77167;51.392;12.342;2024-03-23T05:32:29;98994.75;;;7.90;87.88
86525;BME280;77167;51.392;12.342;2024-03-23T05:34:54;98992.69;;;7.92;88.32
86525;BME280;77167;51.392;12.342;2024-03-23T05:37:23;98988.13;;;7.93;87.39
86525;BME280;77167;51.392;12.342;2024-03-23T05:39:49;98999.72;;;7.93;87.81
86525;BME280;77167;51.392;12.342;2024-03-23T05:42:18;98989.56;;;7.88;87.89
86525;BME280;77167;51.392;12.342;2024-03-23T05:44:46;98964.34;;;7.96;88.28
86525;BME280;77167;51.392;12.342;2024-03-23T05:47:12;98959.22;;;8.01;87.50
86525;BME280;77167;51.392;12.342;2024-03-23T05:49:40;98955.25;;;7.97;87.49
86525;BME280;77167;51.392;12.342;2024-03-23T05:52:07;98952.50;;;7.84;87.97
86525;BME280;77167;51.392;12.342;2024-03-23T05:54:33;98938.66;;;7.87;88.66
86525;BME280;77167;51.392;12.342;2024-03-23T05:56:58;98944.91;;;7.87;88.11
86525;BME280;77167;51.392;12.342;2024-03-23T05:59:24;98951.69;;;7.83;88.48
86525;BME280;77167;51.392;12.342;2024-03-23T06:01:49;98952.91;;;7.81;89.02
86525;BME280;77167;51.392;12.342;2024-03-23T06:04:15;98947.13;;;7.84;88.91
86525;BME280;77167;51.392;12.342;2024-03-23T06:06:40;98949.25;;;7.88;88.82
86525;BME280;77167;51.392;12.342;2024-03-23T06:09:06;98947.75;;;7.86;88.34
86525;BME280;77167;51.392;12.342;2024-03-23T06:11:31;98940.72;;;7.78;88.26
86525;BME280;77167;51.392;12.342;2024-03-23T06:13:56;98932.84;;;7.77;89.20
86525;BME280;77167;51.392;12.342;2024-03-23T06:16:22;98936.78;;;7.81;89.02
86525;BME280;77167;51.392;12.342;2024-03-23T06:18:52;98932.44;;;7.80;89.10
86525;BME280;77167;51.392;12.342;2024-03-23T06:21:17;98933.03;;;7.75;88.90
86525;BME280;77167;51.392;12.342;2024-03-23T06:23:43;98923.75;;;7.78;88.99
86525;BME280;77167;51.392;12.342;2024-03-23T06:26:13;98902.00;;;7.66;89.09
86525;BME280;77167;51.392;12.342;2024-03-23T06:28:39;98896.16;;;7.63;89.54
86525;BME280;77167;51.392;12.342;2024-03-23T06:31:09;98887.44;;;7.47;90.13
86525;BME280;77167;51.392;12.342;2024-03-23T06:33:34;98880.81;;;7.50;90.53
86525;BME280;77167;51.392;12.342;2024-03-23T06:36:00;98879.00;;;7.64;90.07
86525;BME280;77167;51.392;12.342;2024-03-23T06:38:25;98886.06;;;7.65;90.32
86525;BME280;77167;51.392;12.342;2024-03-23T06:40:50;98879.91;;;7.77;90.01
86525;BME280;77167;51.392;12.342;2024-03-23T06:43:18;98875.16;;;7.79;89.38
86525;BME280;77167;51.392;12.342;2024-03-23T06:45:43;98871.03;;;7.77;89.67
86525;BME280;77167;51.392;12.342;2024-03-23T06:48:09;98871.00;;;7.70;89.82
86525;BME280;77167;51.392;12.342;2024-03-23T06:50:34;98856.88;;;7.61;90.11
86525;BME280;77167;51.392;12.342;2024-03-23T06:53:00;98845.72;;;7.58;90.49
86525;BME280;77167;51.392;12.342;2024-03-23T06:55:27;98837.88;;;7.56;90.54
86525;BME280;77167;51.392;12.342;2024-03-23T06:57:53;98837.88;;;7.56;90.60
86525;BME280;77167;51.392;12.342;2024-03-23T07:00:18;98845.31;;;7.54;90.61
86525;BME280;77167;51.392;12.342;2024-03-23T07:02:44;98837.25;;;7.54;90.49
86525;BME280;77167;51.392;12.342;2024-03-23T07:05:10;98836.00;;;7.57;90.29
86525;BME280;77167;51.392;12.342;2024-03-23T07:07:37;98840.16;;;7.59;90.39
86525;BME280;77167;51.392;12.342;2024-03-23T07:10:04;98831.03;;;7.54;90.79
86525;BME280;77167;51.392;12.342;2024-03-23T07:12:30;98837.63;;;7.51;90.28
86525;BME280;77167;51.392;12.342;2024-03-23T07:14:55;98840.97;;;7.53;90.26
86525;BME280;77167;51.392;12.342;2024-03-23T07:17:20;98838.28;;;7.53;89.75
86525;BME280;77167;51.392;12.342;2024-03-23T07:19:46;98840.94;;;7.47;89.84
86525;BME280;77167;51.392;12.342;2024-03-23T07:22:11;98830.53;;;7.37;90.23
86525;BME280;77167;51.392;12.342;2024-03-23T07:24:38;98813.97;;;7.27;90.15
86525;BME280;77167;51.392;12.342;2024-03-23T07:27:04;98816.13;;;7.03;90.42
86525;BME280;77167;51.392;12.342;2024-03-23T07:29:30;98824.78;;;6.99;90.39
86525;BME280;77167;51.392;12.342;2024-03-23T07:31:55;98851.84;;;6.69;89.64
86525;BME280;77167;51.392;12.342;2024-03-23T07:34:20;98871.81;;;6.60;89.97
86525;BME280;77167;51.392;12.342;2024-03-23T07:36:46;98880.75;;;6.46;90.46
86525;BME280;77167;51.392;12.342;2024-03-23T07:39:11;98870.94;;;6.32;91.14
86525;BME280;77167;51.392;12.342;2024-03-23T07:41:37;98877.84;;;6.20;90.76
86525;BME280;77167;51.392;12.342;2024-03-23T07:44:02;98878.72;;;6.05;90.36
86525;BME280;77167;51.392;12.342;2024-03-23T07:46:28;98901.13;;;5.98;90.93
86525;BME280;77167;51.392;12.342;2024-03-23T07:48:53;98914.75;;;5.67;89.31
86525;BME280;77167;51.392;12.342;2024-03-23T07:51:22;98919.13;;;5.23;88.06
86525;BME280;77167;51.392;12.342;2024-03-23T07:53:48;98926.88;;;5.04;89.05
86525;BME280;77167;51.392;12.342;2024-03-23T07:56:14;98916.72;;;4.99;89.03
86525;BME280;77167;51.392;12.342;2024-03-23T07:58:41;98921.88;;;5.01;89.63
86525;BME280;77167;51.392;12.342;2024-03-23T08:01:10;98928.34;;;5.06;90.18
86525;BME280;77167;51.392;12.342;2024-03-23T08:03:37;98932.03;;;5.05;89.44
86525;BME280;77167;51.392;12.342;2024-03-23T08:06:10;98938.41;;;5.04;89.96
86525;BME280;77167;51.392;12.342;2024-03-23T08:08:36;98930.63;;;4.80;89.10
86525;BME280;77167;51.392;12.342;2024-03-23T08:11:01;98929.84;;;4.71;89.27
86525;BME280;77167;51.392;12.342;2024-03-23T08:13:28;98925.13;;;4.58;89.19
86525;BME280;77167;51.392;12.342;2024-03-23T08:15:57;98926.84;;;4.51;89.06
86525;BME280;77167;51.392;12.342;2024-03-23T08:18:23;98920.91;;;4.64;91.51
86525;BME280;77167;51.392;12.342;2024-03-23T08:20:58;98927.00;;;4.50;88.70
86525;BME280;77167;51.392;12.342;2024-03-23T08:23:25;98930.13;;;4.38;87.80
86525;BME280;77167;51.392;12.342;2024-03-23T08:25:51;98952.47;;;4.46;89.89
86525;BME280;77167;51.392;12.342;2024-03-23T08:28:16;98961.88;;;4.42;89.07
86525;BME280;77167;51.392;12.342;2024-03-23T08:30:42;98961.88;;;4.42;89.12
86525;BME280;77167;51.392;12.342;2024-03-23T08:33:07;98984.09;;;4.42;89.33
86525;BME280;77167;51.392;12.342;2024-03-23T08:35:32;99003.25;;;4.23;87.59
86525;BME280;77167;51.392;12.342;2024-03-23T08:37:59;99000.28;;;4.18;88.33
86525;BME280;77167;51.392;12.342;2024-03-23T08:40:25;99002.81;;;4.11;88.07
86525;BME280;77167;51.392;12.342;2024-03-23T08:42:50;99018.41;;;3.99;87.23
86525;BME280;77167;51.392;12.342;2024-03-23T08:45:16;99039.09;;;4.05;88.33
86525;BME280;77167;51.392;12.342;2024-03-23T08:47:41;99032.75;;;4.06;88.53
86525;BME280;77167;51.392;12.342;2024-03-23T08:50:07;99053.75;;;4.09;88.08
86525;BME280;77167;51.392;12.342;2024-03-23T08:52:32;99070.28;;;4.05;88.73
86525;BME280;77167;51.392;12.342;2024-03-23T08:54:58;99072.09;;;4.13;89.31
86525;BME280;77167;51.392;12.342;2024-03-23T08:57:23;99072.50;;;4.01;88.69
86525;BME280;77167;51.392;12.342;2024-03-23T08:59:49;99075.78;;;4.12;88.68
86525;BME280;77167;51.392;12.342;2024-03-23T09:02:15;99073.13;;;4.12;88.34
86525;BME280;77167;51.392;12.342;2024-03-23T09:04:40;99076.44;;;4.14;88.77
86525;BME280;77167;51.392;12.342;2024-03-23T09:07:05;99090.63;;;4.22;88.67
86525;BME280;77167;51.392;12.342;2024-03-23T09:09:31;99090.41;;;4.32;88.28
86525;BME280;77167;51.392;12.342;2024-03-23T09:11:56;99100.75;;;4.35;87.96
86525;BME280;77167;51.392;12.342;2024-03-23T09:14:22;99109.25;;;4.38;87.61
86525;BME280;77167;51.392;12.342;2024-03-23T09:16:50;99119.91;;;4.47;87.27
86525;BME280;77167;51.392;12.342;2024-03-23T09:19:17;99127.84;;;4.32;85.66
86525;BME280;77167;51.392;12.342;2024-03-23T09:21:42;99114.28;;;4.33;87.16
86525;BME280;77167;51.392;12.342;2024-03-23T09:24:08;99103.97;;;4.30;87.24
86525;BME280;77167;51.392;12.342;2024-03-23T09:26:33;99093.72;;;4.34;86.51
86525;BME280;77167;51.392;12.342;2024-03-23T09:28:59;99096.38;;;4.42;87.41
86525;BME280;77167;51.392;12.342;2024-03-23T09:31:24;99101.56;;;4.35;86.66
86525;BME280;77167;51.392;12.342;2024-03-23T09:33:49;99106.72;;;4.45;86.67
86525;BME280;77167;51.392;12.342;2024-03-23T09:36:15;99116.00;;;4.57;86.84
86525;BME280;77167;51.392;12.342;2024-03-23T09:38:41;99131.63;;;4.77;86.62
86525;BME280;77167;51.392;12.342;2024-03-23T09:41:09;99158.41;;;4.68;86.48
86525;BME280;77167;51.392;12.342;2024-03-23T09:43:35;99166.41;;;4.77;87.12
86525;BME280;77167;51.392;12.342;2024-03-23T09:46:04;99176.22;;;4.84;88.68
86525;BME280;77167;51.392;12.342;2024-03-23T09:48:30;99189.47;;;4.78;87.28
86525;BME280;77167;51.392;12.342;2024-03-23T09:50:56;99193.09;;;4.85;87.25
86525;BME280;77167;51.392;12.342;2024-03-23T09:53:22;99196.50;;;4.79;86.60
86525;BME280;77167;51.392;12.342;2024-03-23T09:55:47;99175.59;;;4.74;86.64
86525;BME280;77167;51.392;12.342;2024-03-23T09:58:16;99188.81;;;4.76;86.19
86525;BME280;77167;51.392;12.342;2024-03-23T10:00:41;99195.75;;;4.54;85.26
86525;BME280;77167;51.392;12.342;2024-03-23T10:03:07;99218.13;;;4.61;85.32
86525;BME280;77167;51.392;12.342;2024-03-23T10:05:33;99224.63;;;4.66;86.26
86525;BME280;77167;51.392;12.342;2024-03-23T10:08:00;99236.00;;;4.60;85.80
86525;BME280;77167;51.392;12.342;2024-03-23T10:10:26;99249.38;;;4.60;85.40
86525;BME280;77167;51.392;12.342;2024-03-23T10:12:51;99254.09;;;4.50;85.44
86525;BME280;77167;51.392;12.342;2024-03-23T10:15:21;99258.78;;;4.48;84.86
86525;BME280;77167;51.392;12.342;2024-03-23T10:17:47;99263.31;;;4.48;85.59
86525;BME280;77167;51.392;12.342;2024-03-23T10:20:12;99275.50;;;4.50;85.99
86525;BME280;77167;51.392;12.342;2024-03-23T10:22:38;99272.50;;;4.53;86.38
86525;BME280;77167;51.392;12.342;2024-03-23T10:25:08;99275.50;;;4.50;85.80
86525;BME280;77167;51.392;12.342;2024-03-23T10:27:34;99280.16;;;4.56;85.67
86525;BME280;77167;51.392;12.342;2024-03-23T10:30:13;99295.50;;;4.62;86.07
86525;BME280;77167;51.392;12.342;2024-03-23T10:32:42;99297.88;;;4.65;86.21
86525;BME280;77167;51.392;12.342;2024-03-23T10:35:14;99313.75;;;4.51;84.79
86525;BME280;77167;51.392;12.342;2024-03-23T10:37:41;99317.44;;;4.50;85.58
86525;BME280;77167;51.392;12.342;2024-03-23T10:40:09;99311.09;;;4.51;86.20
86525;BME280;77167;51.392;12.342;2024-03-23T10:42:35;99311.97;;;4.43;86.32
86525;BME280;77167;51.392;12.342;2024-03-23T10:45:04;99317.25;;;4.51;86.22
86525;BME280;77167;51.392;12.342;2024-03-23T10:47:29;99322.59;;;4.59;87.44
86525;BME280;77167;51.392;12.342;2024-03-23T10:49:55;99320.47;;;4.55;84.83
86525;BME280;77167;51.392;12.342;2024-03-23T10:52:20;99321.13;;;4.57;85.78
86525;BME280;77167;51.392;12.342;2024-03-23T10:54:47;99322.59;;;4.76;88.49
86525;BME280;77167;51.392;12.342;2024-03-23T10:57:18;99326.56;;;4.88;85.25
86525;BME280;77167;51.392;12.342;2024-03-23T10:59:45;99329.00;;;5.06;86.18
86525;BME280;77167;51.392;12.342;2024-03-23T11:02:21;99334.00;;;5.09;85.36
86525;BME280;77167;51.392;12.342;2024-03-23T11:04:47;99339.28;;;5.25;85.59
86525;BME280;77167;51.392;12.342;2024-03-23T11:07:32;99338.31;;;5.57;88.18
86525;BME280;77167;51.392;12.342;2024-03-23T11:09:59;99333.06;;;5.86;91.56
86525;BME280;77167;51.392;12.342;2024-03-23T11:12:29;99347.06;;;6.42;91.05
86525;BME280;77167;51.392;12.342;2024-03-23T11:15:06;99341.13;;;6.85;90.59
86525;BME280;77167;51.392;12.342;2024-03-23T11:17:36;99341.78;;;6.87;90.84
86525;BME280;77167;51.392;12.342;2024-03-23T11:20:05;99345.00;;;6.82;90.51
86525;BME280;77167;51.392;12.342;2024-03-23T11:25:23;99341.66;;;7.24;87.03
86525;BME280;77167;51.392;12.342;2024-03-23T11:27:53;99347.25;;;6.41;81.49
86525;BME280;77167;51.392;12.342;2024-03-23T11:32:46;99343.19;;;6.07;81.71
86525;BME280;77167;51.392;12.342;2024-03-23T11:35:41;99345.63;;;5.94;82.04
86525;BME280;77167;51.392;12.342;2024-03-23T11:38:17;99342.75;;;5.96;81.35
86525;BME280;77167;51.392;12.342;2024-03-23T11:40:47;99347.75;;;5.99;81.00
86525;BME280;77167;51.392;12.342;2024-03-23T11:43:16;99346.28;;;6.19;82.52
86525;BME280;77167;51.392;12.342;2024-03-23T11:45:47;99360.22;;;6.37;80.51
86525;BME280;77167;51.392;12.342;2024-03-23T11:48:18;99345.91;;;6.60;78.72
86525;BME280;77167;51.392;12.342;2024-03-23T11:50:45;99339.38;;;6.77;79.28
86525;BME280;77167;51.392;12.342;2024-03-23T11:55:53;99319.19;;;6.81;77.05
86525;BME280;77167;51.392;12.342;2024-03-23T11:58:21;99318.06;;;6.76;77.42
86525;BME280;77167;51.392;12.342;2024-03-23T12:00:59;99318.06;;;6.61;76.24
86525;BME280;77167;51.392;12.342;2024-03-23T12:03:27;99304.66;;;6.61;78.62
86525;BME280;77167;51.392;12.342;2024-03-23T12:06:01;99302.78;;;6.91;78.76
86525;BME280;77167;51.392;12.342;2024-03-23T12:08:34;99306.88;;;7.01;77.79
86525;BME280;77167;51.392;12.342;2024-03-23T12:11:13;99305.09;;;7.23;74.27
86525;BME280;77167;51.392;12.342;2024-03-23T12:13:40;99300.00;;;7.14;74.65
86525;BME280;77167;51.392;12.342;2024-03-23T12:16:14;99298.06;;;7.08;76.62
86525;BME280;77167;51.392;12.342;2024-03-23T12:18:41;99300.28;;;7.19;75.78
86525;BME280;77167;51.392;12.342;2024-03-23T12:21:07;99294.78;;;7.27;73.32
86525;BME280;77167;51.392;12.342;2024-03-23T12:23:33;99291.84;;;7.22;71.50
86525;BME280;77167;51.392;12.342;2024-03-23T12:25:59;99304.38;;;7.00;73.38
86525;BME280;77167;51.392;12.342;2024-03-23T12:28:25;99311.84;;;7.34;73.70
86525;BME280;77167;51.392;12.342;2024-03-23T12:30:53;99305.03;;;7.53;72.37
86525;BME280;77167;51.392;12.342;2024-03-23T12:33:19;99311.25;;;7.39;71.18
86525;BME280;77167;51.392;12.342;2024-03-23T12:35:44;99307.03;;;7.29;72.23
86525;BME280;77167;51.392;12.342;2024-03-23T12:38:10;99306.91;;;7.38;73.58
86525;BME280;77167;51.392;12.342;2024-03-23T12:40:35;99299.59;;;7.68;73.15
86525;BME280;77167;51.392;12.342;2024-03-23T12:43:01;99296.22;;;7.80;68.75
86525;BME280;77167;51.392;12.342;2024-03-23T12:45:26;99298.44;;;7.98;69.93
86525;BME280;77167;51.392;12.342;2024-03-23T12:47:52;99289.94;;;7.95;69.22
86525;BME280;77167;51.392;12.342;2024-03-23T12:50:20;99289.38;;;7.99;72.61
86525;BME280;77167;51.392;12.342;2024-03-23T12:52:46;99287.06;;;7.96;70.53
86525;BME280;77167;51.392;12.342;2024-03-23T12:55:11;99286.03;;;7.97;69.81
86525;BME280;77167;51.392;12.342;2024-03-23T12:57:37;99287.16;;;8.31;72.84
86525;BME280;77167;51.392;12.342;2024-03-23T13:00:03;99288.56;;;8.48;69.43
86525;BME280;77167;51.392;12.342;2024-03-23T13:02:29;99275.81;;;8.63;68.90
86525;BME280;77167;51.392;12.342;2024-03-23T13:04:55;99270.56;;;8.83;68.80
86525;BME280;77167;51.392;12.342;2024-03-23T13:07:22;99261.63;;;9.17;71.67
86525;BME280;77167;51.392;12.342;2024-03-23T13:09:50;99261.97;;;9.07;64.82
86525;BME280;77167;51.392;12.342;2024-03-23T13:12:15;99265.94;;;9.12;68.05
86525;BME280;77167;51.392;12.342;2024-03-23T13:14:41;99250.69;;;8.91;66.52
86525;BME280;77167;51.392;12.342;2024-03-23T13:17:07;99250.38;;;9.07;66.38
86525;BME280;77167;51.392;12.342;2024-03-23T13:19:33;99242.69;;;9.04;65.28
86525;BME280;77167;51.392;12.342;2024-03-23T13:22:00;99249.97;;;9.10;67.91
86525;BME280;77167;51.392;12.342;2024-03-23T13:24:29;99250.56;;;9.05;66.66
86525;BME280;77167;51.392;12.342;2024-03-23T13:26:55;99252.47;;;8.70;66.61
86525;BME280;77167;51.392;12.342;2024-03-23T13:29:21;99243.50;;;8.63;67.65
86525;BME280;77167;51.392;12.342;2024-03-23T13:31:51;99241.72;;;8.70;67.22
86525;BME280;77167;51.392;12.342;2024-03-23T13:34:17;99230.19;;;8.55;67.23
86525;BME280;77167;51.392;12.342;2024-03-23T13:36:46;99229.84;;;8.58;67.33
86525;BME280;77167;51.392;12.342;2024-03-23T13:39:12;99235.66;;;8.62;74.73
86525;BME280;77167;51.392;12.342;2024-03-23T13:44:03;99244.78;;;8.67;64.64
86525;BME280;77167;51.392;12.342;2024-03-23T13:46:29;99248.13;;;8.76;65.25
86525;BME280;77167;51.392;12.342;2024-03-23T13:48:54;99244.09;;;8.93;69.97
86525;BME280;77167;51.392;12.342;2024-03-23T13:51:23;99247.41;;;8.95;70.31
86525;BME280;77167;51.392;12.342;2024-03-23T13:53:50;99248.66;;;8.93;71.61
86525;BME280;77167;51.392;12.342;2024-03-23T13:56:15;99276.81;;;8.90;69.43
86525;BME280;77167;51.392;12.342;2024-03-23T13:58:41;99281.19;;;8.57;72.26